Terminal Aerodrome Forecast
Issued by NWS Charleston, WV

Current Version | Previous Version | Text Only | Print | Product List | Glossary Off
Versions: 1 2 3 4 5 6 7 8 9 10 11 12 13 14 15 16 17 18 19 20 21 22 23 24

580
FTUS41 KRLX 271326 AAA
TAFHTS
TAF AMD
KHTS 271326Z 2713/2812 00000KT 6SM BR SCT002
      TEMPO 2713/2714 5SM BR SCT005 BKN025
     FM271400 21005KT P6SM BKN050
     FM280000 17003KT P6SM SHRA VCTS BKN050CB=

USA.gov is the U.S. government's official web portal to all federal, state and local government web resources and services.